ESOW/VST METAR and TAF weather

Enter ICAO airport designator
Station Type Date Time Source
ESOW METAR 2020/01/28 04:50 UTC NOAA

ESOW 280450Z AUTO 17004KT 9999 OVC007/// 03/01 Q0997


Station Type Date Time Source
ESOW Decoded METAR 2020/01/28 04:50 UTC NOAA

Vasteras / Hasslo, Sweden (ESOW) 59-35N 016-38E 31M
Jan 27, 2020 - 11:50 PM EST / 2020.01.28 0450 UTC
Wind: from the S (170 degrees) at 5 MPH (4 KT):0
Visibility: greater than 7 mile(s):0
Sky conditions: overcast
Temperature: 37 F (3 C)
Dew Point: 33 F (1 C)
Relative Humidity: 86%
Pressure (altimeter): 29.44 in. Hg (0997 hPa)
ob: ESOW 280450Z AUTO 17004KT 9999 OVC007/// 03/01 Q0997
cycle: 5

Station Type Date Time Source
ESOW TAF 2018/11/18 12:33 UTC NOAA

TAF ESOW 181130Z 1812/1914 02015KT 9999 BKN020
TEMPO 1812/1814 02015G25KT

Example: see airport list